sensor_id;sensor_type;location;lat;lon;timestamp;P1;P2;P0
50866;PMS7003;36839;51.946;21.002;2023-03-01T00:01:04;95.00;74.00;47.00
50866;PMS7003;36839;51.946;21.002;2023-03-01T00:03:33;106.00;78.00;48.00
50866;PMS7003;36839;51.946;21.002;2023-03-01T00:06:01;103.50;80.00;49.50
50866;PMS7003;36839;51.946;21.002;2023-03-01T00:08:29;93.00;66.00;41.00
50866;PMS7003;36839;51.946;21.002;2023-03-01T00:11:00;92.50;73.00;48.00
50866;PMS7003;36839;51.946;21.002;2023-03-01T00:13:29;103.00;77.00;48.50
50866;PMS7003;36839;51.946;21.002;2023-03-01T00:15:56;103.00;76.00;46.00
50866;PMS7003;36839;51.946;21.002;2023-03-01T00:18:26;104.00;74.00;47.00
50866;PMS7003;36839;51.946;21.002;2023-03-01T00:20:53;110.00;76.00;46.00
50866;PMS7003;36839;51.946;21.002;2023-03-01T00:23:22;102.00;76.00;47.00
50866;PMS7003;36839;51.946;21.002;2023-03-01T00:28:17;104.50;78.50;50.00
50866;PMS7003;36839;51.946;21.002;2023-03-01T00:30:44;112.50;87.00;52.00
50866;PMS7003;36839;51.946;21.002;2023-03-01T00:33:12;106.50;82.00;49.50
50866;PMS7003;36839;51.946;21.002;2023-03-01T00:35:39;95.50;73.50;46.00
50866;PMS7003;36839;51.946;21.002;2023-03-01T00:38:06;96.00;73.50;45.00
50866;PMS7003;36839;51.946;21.002;2023-03-01T00:40:34;103.00;73.50;47.00
50866;PMS7003;36839;51.946;21.002;2023-03-01T00:43:03;97.00;74.00;44.00
50866;PMS7003;36839;51.946;21.002;2023-03-01T00:45:30;89.00;72.00;43.00
50866;PMS7003;36839;51.946;21.002;2023-03-01T00:50:25;97.00;71.00;43.00
50866;PMS7003;36839;51.946;21.002;2023-03-01T00:52:53;96.00;70.00;43.00
50866;PMS7003;36839;51.946;21.002;2023-03-01T00:55:21;99.00;72.00;48.00
50866;PMS7003;36839;51.946;21.002;2023-03-01T00:57:49;105.00;83.00;50.00
50866;PMS7003;36839;51.946;21.002;2023-03-01T01:00:17;100.50;73.00;47.00
50866;PMS7003;36839;51.946;21.002;2023-03-01T01:02:45;90.00;67.00;44.00
50866;PMS7003;36839;51.946;21.002;2023-03-01T01:05:13;86.00;66.00;42.00
50866;PMS7003;36839;51.946;21.002;2023-03-01T01:07:40;89.00;65.00;44.00
50866;PMS7003;36839;51.946;21.002;2023-03-01T01:10:08;90.00;66.00;43.00
50866;PMS7003;36839;51.946;21.002;2023-03-01T01:15:08;90.00;69.00;43.00
50866;PMS7003;36839;51.946;21.002;2023-03-01T01:17:35;89.00;67.00;43.00
50866;PMS7003;36839;51.946;21.002;2023-03-01T01:20:05;85.00;61.00;43.00
50866;PMS7003;36839;51.946;21.002;2023-03-01T01:22:33;80.00;60.00;40.00
50866;PMS7003;36839;51.946;21.002;2023-03-01T01:25:02;91.50;67.00;40.50
50866;PMS7003;36839;51.946;21.002;2023-03-01T01:29:56;71.00;50.00;32.00
50866;PMS7003;36839;51.946;21.002;2023-03-01T01:32:24;74.00;55.00;37.00
50866;PMS7003;36839;51.946;21.002;2023-03-01T01:34:52;75.00;56.00;35.00
50866;PMS7003;36839;51.946;21.002;2023-03-01T01:37:19;68.50;53.00;34.00
50866;PMS7003;36839;51.946;21.002;2023-03-01T01:39:47;74.00;53.00;32.00
50866;PMS7003;36839;51.946;21.002;2023-03-01T01:42:15;91.00;66.00;39.00
50866;PMS7003;36839;51.946;21.002;2023-03-01T01:44:46;75.00;58.00;34.50
50866;PMS7003;36839;51.946;21.002;2023-03-01T01:47:14;80.00;61.00;38.00
50866;PMS7003;36839;51.946;21.002;2023-03-01T01:49:49;77.00;57.00;39.00
50866;PMS7003;36839;51.946;21.002;2023-03-01T01:52:21;89.00;63.00;39.00
50866;PMS7003;36839;51.946;21.002;2023-03-01T01:54:55;78.50;57.00;35.00
50866;PMS7003;36839;51.946;21.002;2023-03-01T01:57:32;74.00;56.00;34.00
50866;PMS7003;36839;51.946;21.002;2023-03-01T02:00:05;71.00;42.00;14.00
50866;PMS7003;36839;51.946;21.002;2023-03-01T02:02:35;87.00;66.00;41.00
50866;PMS7003;36839;51.946;21.002;2023-03-01T02:08:03;82.00;60.00;37.00
50866;PMS7003;36839;51.946;21.002;2023-03-01T02:10:32;68.00;42.50;14.00
50866;PMS7003;36839;51.946;21.002;2023-03-01T02:13:01;83.50;64.50;42.00
50866;PMS7003;36839;51.946;21.002;2023-03-01T02:15:33;78.00;60.00;38.00
50866;PMS7003;36839;51.946;21.002;2023-03-01T02:18:02;81.50;62.00;40.00
50866;PMS7003;36839;51.946;21.002;2023-03-01T02:23:24;70.00;56.00;32.00
50866;PMS7003;36839;51.946;21.002;2023-03-01T02:26:01;74.00;57.00;35.00
50866;PMS7003;36839;51.946;21.002;2023-03-01T02:28:35;72.00;55.00;34.00
50866;PMS7003;36839;51.946;21.002;2023-03-01T02:31:05;65.00;49.50;34.00
50866;PMS7003;36839;51.946;21.002;2023-03-01T02:33:53;75.00;58.00;36.50
50866;PMS7003;36839;51.946;21.002;2023-03-01T02:38:57;81.00;59.50;37.50
50866;PMS7003;36839;51.946;21.002;2023-03-01T02:41:27;83.00;61.00;37.00
50866;PMS7003;36839;51.946;21.002;2023-03-01T02:43:58;80.00;63.00;40.00
50866;PMS7003;36839;51.946;21.002;2023-03-01T02:46:25;76.00;60.00;40.00
50866;PMS7003;36839;51.946;21.002;2023-03-01T02:48:56;74.00;60.00;37.00
50866;PMS7003;36839;51.946;21.002;2023-03-01T02:56:52;80.00;56.00;35.00
50866;PMS7003;36839;51.946;21.002;2023-03-01T02:59:27;77.00;60.00;38.00
50866;PMS7003;36839;51.946;21.002;2023-03-01T03:01:57;79.00;59.00;37.00
50866;PMS7003;36839;51.946;21.002;2023-03-01T03:04:27;82.50;63.00;39.50
50866;PMS7003;36839;51.946;21.002;2023-03-01T03:09:20;80.50;63.00;40.50
50866;PMS7003;36839;51.946;21.002;2023-03-01T03:11:47;86.00;63.00;38.00
50866;PMS7003;36839;51.946;21.002;2023-03-01T03:14:15;74.50;59.00;35.50
50866;PMS7003;36839;51.946;21.002;2023-03-01T03:16:45;73.00;54.00;35.00
50866;PMS7003;36839;51.946;21.002;2023-03-01T03:19:14;75.00;57.50;34.50
50866;PMS7003;36839;51.946;21.002;2023-03-01T03:21:43;81.00;65.00;38.00
50866;PMS7003;36839;51.946;21.002;2023-03-01T03:24:10;74.00;56.00;37.00
50866;PMS7003;36839;51.946;21.002;2023-03-01T03:26:37;70.00;52.00;31.50
50866;PMS7003;36839;51.946;21.002;2023-03-01T03:29:04;78.00;60.00;38.00
50866;PMS7003;36839;51.946;21.002;2023-03-01T03:31:31;81.00;59.00;35.00
50866;PMS7003;36839;51.946;21.002;2023-03-01T03:33:58;73.00;56.00;33.00
50866;PMS7003;36839;51.946;21.002;2023-03-01T03:36:25;73.50;58.50;36.00
50866;PMS7003;36839;51.946;21.002;2023-03-01T03:38:53;74.50;56.00;35.50
50866;PMS7003;36839;51.946;21.002;2023-03-01T03:43:47;74.50;56.00;34.00
50866;PMS7003;36839;51.946;21.002;2023-03-01T03:46:15;75.50;58.00;35.00
50866;PMS7003;36839;51.946;21.002;2023-03-01T03:51:12;69.50;54.50;34.00
50866;PMS7003;36839;51.946;21.002;2023-03-01T03:53:40;62.00;50.00;33.00
50866;PMS7003;36839;51.946;21.002;2023-03-01T03:56:08;80.50;58.00;37.00
50866;PMS7003;36839;51.946;21.002;2023-03-01T03:58:35;64.00;49.00;34.00
50866;PMS7003;36839;51.946;21.002;2023-03-01T04:01:03;75.00;59.00;37.00
50866;PMS7003;36839;51.946;21.002;2023-03-01T04:03:30;66.00;51.00;33.00
50866;PMS7003;36839;51.946;21.002;2023-03-01T04:05:59;64.00;53.00;34.00
50866;PMS7003;36839;51.946;21.002;2023-03-01T04:08:27;64.33;51.00;32.00
50866;PMS7003;36839;51.946;21.002;2023-03-01T04:10:59;70.00;56.00;34.00
50866;PMS7003;36839;51.946;21.002;2023-03-01T04:13:47;68.50;51.00;31.50
50866;PMS7003;36839;51.946;21.002;2023-03-01T04:16:15;55.00;40.00;21.00
50866;PMS7003;36839;51.946;21.002;2023-03-01T04:18:42;63.00;48.00;29.00
50866;PMS7003;36839;51.946;21.002;2023-03-01T04:21:10;71.00;52.00;33.00
50866;PMS7003;36839;51.946;21.002;2023-03-01T04:23:38;63.50;45.00;28.50
50866;PMS7003;36839;51.946;21.002;2023-03-01T04:26:05;70.00;57.00;35.00
50866;PMS7003;36839;51.946;21.002;2023-03-01T04:28:39;75.50;58.00;37.00
50866;PMS7003;36839;51.946;21.002;2023-03-01T04:31:10;78.00;59.00;38.00
50866;PMS7003;36839;51.946;21.002;2023-03-01T04:33:43;67.50;50.50;31.50
50866;PMS7003;36839;51.946;21.002;2023-03-01T04:36:13;63.00;53.00;34.00
50866;PMS7003;36839;51.946;21.002;2023-03-01T04:38:42;64.00;53.00;34.00
50866;PMS7003;36839;51.946;21.002;2023-03-01T04:41:14;62.50;45.00;29.50
50866;PMS7003;36839;51.946;21.002;2023-03-01T04:43:43;65.50;53.00;31.50
50866;PMS7003;36839;51.946;21.002;2023-03-01T04:46:12;61.50;41.00;27.50
50866;PMS7003;36839;51.946;21.002;2023-03-01T04:48:41;74.00;55.00;37.50
50866;PMS7003;36839;51.946;21.002;2023-03-01T04:51:10;68.00;52.00;35.00
50866;PMS7003;36839;51.946;21.002;2023-03-01T04:53:41;60.00;50.00;31.00
50866;PMS7003;36839;51.946;21.002;2023-03-01T04:56:09;65.00;51.00;32.00
50866;PMS7003;36839;51.946;21.002;2023-03-01T04:58:36;84.00;61.00;38.00
50866;PMS7003;36839;51.946;21.002;2023-03-01T05:01:14;77.50;58.50;39.50
50866;PMS7003;36839;51.946;21.002;2023-03-01T05:03:45;85.00;59.00;36.00
50866;PMS7003;36839;51.946;21.002;2023-03-01T05:06:17;79.00;53.50;33.50
50866;PMS7003;36839;51.946;21.002;2023-03-01T05:08:45;71.00;52.00;31.00
50866;PMS7003;36839;51.946;21.002;2023-03-01T05:11:13;71.00;53.00;33.00
50866;PMS7003;36839;51.946;21.002;2023-03-01T05:13:40;64.00;52.00;33.00
50866;PMS7003;36839;51.946;21.002;2023-03-01T05:16:08;66.50;51.00;31.50
50866;PMS7003;36839;51.946;21.002;2023-03-01T05:18:39;65.00;50.00;28.00
50866;PMS7003;36839;51.946;21.002;2023-03-01T05:21:08;67.00;49.00;32.00
50866;PMS7003;36839;51.946;21.002;2023-03-01T05:23:37;63.00;49.00;32.00
50866;PMS7003;36839;51.946;21.002;2023-03-01T05:26:07;69.50;51.00;31.50
50866;PMS7003;36839;51.946;21.002;2023-03-01T05:28:35;70.00;55.00;35.00
50866;PMS7003;36839;51.946;21.002;2023-03-01T05:31:03;60.50;46.00;30.50
50866;PMS7003;36839;51.946;21.002;2023-03-01T05:33:37;72.00;55.00;35.00
50866;PMS7003;36839;51.946;21.002;2023-03-01T05:36:09;65.00;51.00;34.00
50866;PMS7003;36839;51.946;21.002;2023-03-01T05:38:36;65.00;51.00;34.00
50866;PMS7003;36839;51.946;21.002;2023-03-01T05:43:31;50.00;40.00;28.00
50866;PMS7003;36839;51.946;21.002;2023-03-01T05:46:00;58.50;45.00;29.50
50866;PMS7003;36839;51.946;21.002;2023-03-01T05:48:28;62.00;50.00;32.00
50866;PMS7003;36839;51.946;21.002;2023-03-01T05:50:58;93.00;70.00;45.00
50866;PMS7003;36839;51.946;21.002;2023-03-01T05:53:27;167.00;131.00;71.00
50866;PMS7003;36839;51.946;21.002;2023-03-01T05:55:54;237.00;182.00;93.50
50866;PMS7003;36839;51.946;21.002;2023-03-01T05:58:21;188.00;144.00;78.00
50866;PMS7003;36839;51.946;21.002;2023-03-01T06:00:49;180.00;141.00;81.00
50866;PMS7003;36839;51.946;21.002;2023-03-01T06:03:16;158.00;132.50;66.50
50866;PMS7003;36839;51.946;21.002;2023-03-01T06:05:44;146.50;117.50;60.00
50866;PMS7003;36839;51.946;21.002;2023-03-01T06:08:12;85.00;61.00;11.00
50866;PMS7003;36839;51.946;21.002;2023-03-01T06:10:39;133.00;106.00;63.50
50866;PMS7003;36839;51.946;21.002;2023-03-01T06:13:07;110.00;83.00;50.25
50866;PMS7003;36839;51.946;21.002;2023-03-01T06:15:34;85.00;63.00;42.00
50866;PMS7003;36839;51.946;21.002;2023-03-01T06:18:01;71.50;54.00;37.00
50866;PMS7003;36839;51.946;21.002;2023-03-01T06:20:28;60.50;44.00;20.00
50866;PMS7003;36839;51.946;21.002;2023-03-01T06:22:56;64.50;50.50;31.50
50866;PMS7003;36839;51.946;21.002;2023-03-01T06:27:51;64.50;49.50;32.50
50866;PMS7003;36839;51.946;21.002;2023-03-01T06:30:22;65.50;53.50;34.00
50866;PMS7003;36839;51.946;21.002;2023-03-01T06:32:51;64.00;49.00;31.50
50866;PMS7003;36839;51.946;21.002;2023-03-01T06:35:19;64.00;45.67;28.00
50866;PMS7003;36839;51.946;21.002;2023-03-01T06:37:47;72.00;55.00;37.00
50866;PMS7003;36839;51.946;21.002;2023-03-01T06:40:14;71.50;51.00;34.50
50866;PMS7003;36839;51.946;21.002;2023-03-01T06:42:43;73.50;57.00;36.00
50866;PMS7003;36839;51.946;21.002;2023-03-01T06:47:41;76.50;57.50;36.50
50866;PMS7003;36839;51.946;21.002;2023-03-01T06:50:09;69.00;54.00;35.00
50866;PMS7003;36839;51.946;21.002;2023-03-01T06:52:37;74.50;54.50;36.50
50866;PMS7003;36839;51.946;21.002;2023-03-01T06:55:05;65.00;51.00;31.00
50866;PMS7003;36839;51.946;21.002;2023-03-01T07:00:00;74.50;54.50;35.00
50866;PMS7003;36839;51.946;21.002;2023-03-01T07:02:28;83.00;65.00;40.00
50866;PMS7003;36839;51.946;21.002;2023-03-01T07:04:55;80.00;60.00;38.00
50866;PMS7003;36839;51.946;21.002;2023-03-01T07:07:22;59.00;46.00;33.00
50866;PMS7003;36839;51.946;21.002;2023-03-01T07:14:43;68.50;55.00;35.50
50866;PMS7003;36839;51.946;21.002;2023-03-01T07:17:11;72.00;54.00;33.00
50866;PMS7003;36839;51.946;21.002;2023-03-01T07:19:38;81.50;58.50;35.00
50866;PMS7003;36839;51.946;21.002;2023-03-01T07:22:05;79.00;62.00;39.00
50866;PMS7003;36839;51.946;21.002;2023-03-01T07:24:34;70.00;52.00;34.00
50866;PMS7003;36839;51.946;21.002;2023-03-01T07:27:02;74.00;53.00;34.00
50866;PMS7003;36839;51.946;21.002;2023-03-01T07:29:29;66.00;50.00;33.00
50866;PMS7003;36839;51.946;21.002;2023-03-01T07:31:56;61.50;45.00;29.00
50866;PMS7003;36839;51.946;21.002;2023-03-01T07:34:24;63.00;49.00;31.50
50866;PMS7003;36839;51.946;21.002;2023-03-01T07:36:51;54.50;41.50;27.00
50866;PMS7003;36839;51.946;21.002;2023-03-01T07:39:18;53.00;42.00;28.00
50866;PMS7003;36839;51.946;21.002;2023-03-01T07:41:46;55.00;41.00;27.50
50866;PMS7003;36839;51.946;21.002;2023-03-01T07:44:13;58.00;41.00;26.00
50866;PMS7003;36839;51.946;21.002;2023-03-01T07:46:40;61.00;43.00;27.00
50866;PMS7003;36839;51.946;21.002;2023-03-01T07:49:07;54.00;42.00;27.00
50866;PMS7003;36839;51.946;21.002;2023-03-01T07:51:34;56.00;45.00;28.50
50866;PMS7003;36839;51.946;21.002;2023-03-01T07:54:01;61.00;45.00;28.00
50866;PMS7003;36839;51.946;21.002;2023-03-01T07:56:28;52.00;39.00;25.00
50866;PMS7003;36839;51.946;21.002;2023-03-01T07:58:55;56.00;42.00;28.00
50866;PMS7003;36839;51.946;21.002;2023-03-01T08:01:22;57.00;43.50;28.50
50866;PMS7003;36839;51.946;21.002;2023-03-01T08:03:50;59.00;44.50;29.00
50866;PMS7003;36839;51.946;21.002;2023-03-01T08:06:17;54.00;43.00;27.00
50866;PMS7003;36839;51.946;21.002;2023-03-01T08:08:45;45.50;39.50;25.00
50866;PMS7003;36839;51.946;21.002;2023-03-01T08:11:13;51.50;41.00;28.00
50866;PMS7003;36839;51.946;21.002;2023-03-01T08:13:42;47.50;38.00;26.00
50866;PMS7003;36839;51.946;21.002;2023-03-01T08:16:11;51.00;40.00;25.00
50866;PMS7003;36839;51.946;21.002;2023-03-01T08:18:41;45.00;41.00;28.00
50866;PMS7003;36839;51.946;21.002;2023-03-01T08:21:11;43.00;35.00;25.00
50866;PMS7003;36839;51.946;21.002;2023-03-01T08:26:11;42.50;31.50;22.00
50866;PMS7003;36839;51.946;21.002;2023-03-01T08:28:40;35.50;31.50;21.50
50866;PMS7003;36839;51.946;21.002;2023-03-01T08:31:15;25.00;24.00;17.33
50866;PMS7003;36839;51.946;21.002;2023-03-01T08:33:51;18.00;12.00;3.00
50866;PMS7003;36839;51.946;21.002;2023-03-01T08:36:23;32.50;23.00;17.00
50866;PMS7003;36839;51.946;21.002;2023-03-01T08:38:53;30.00;26.00;18.00
50866;PMS7003;36839;51.946;21.002;2023-03-01T08:41:21;23.00;20.00;14.00
50866;PMS7003;36839;51.946;21.002;2023-03-01T08:43:49;27.00;23.00;15.00
50866;PMS7003;36839;51.946;21.002;2023-03-01T08:46:16;24.50;22.00;15.00
50866;PMS7003;36839;51.946;21.002;2023-03-01T08:48:43;28.50;21.50;17.00
50866;PMS7003;36839;51.946;21.002;2023-03-01T08:51:12;21.00;18.00;12.00
50866;PMS7003;36839;51.946;21.002;2023-03-01T08:53:41;22.00;17.00;13.00
50866;PMS7003;36839;51.946;21.002;2023-03-01T08:58:36;23.50;21.50;14.00
50866;PMS7003;36839;51.946;21.002;2023-03-01T09:01:08;24.50;20.00;14.50
50866;PMS7003;36839;51.946;21.002;2023-03-01T09:03:36;22.00;22.00;17.00
50866;PMS7003;36839;51.946;21.002;2023-03-01T09:06:05;24.00;20.00;13.00
50866;PMS7003;36839;51.946;21.002;2023-03-01T09:11:04;20.00;18.00;14.00
50866;PMS7003;36839;51.946;21.002;2023-03-01T09:13:35;23.00;21.00;16.00
50866;PMS7003;36839;51.946;21.002;2023-03-01T09:16:03;28.00;24.00;16.00
50866;PMS7003;36839;51.946;21.002;2023-03-01T09:18:33;31.00;26.00;18.00
50866;PMS7003;36839;51.946;21.002;2023-03-01T09:21:11;23.00;21.00;15.00
50866;PMS7003;36839;51.946;21.002;2023-03-01T09:23:42;37.00;32.00;20.50
50866;PMS7003;36839;51.946;21.002;2023-03-01T09:26:14;26.00;23.00;16.00
50866;PMS7003;36839;51.946;21.002;2023-03-01T09:28:43;31.50;26.00;19.50
50866;PMS7003;36839;51.946;21.002;2023-03-01T09:31:13;27.00;25.00;17.00
50866;PMS7003;36839;51.946;21.002;2023-03-01T09:33:41;28.50;24.00;18.00
50866;PMS7003;36839;51.946;21.002;2023-03-01T09:36:13;32.00;25.00;18.00
50866;PMS7003;36839;51.946;21.002;2023-03-01T09:38:44;27.00;20.50;14.50
50866;PMS7003;36839;51.946;21.002;2023-03-01T09:41:25;20.00;20.00;15.50
50866;PMS7003;36839;51.946;21.002;2023-03-01T09:46:55;19.50;18.00;12.00
50866;PMS7003;36839;51.946;21.002;2023-03-01T09:49:25;28.00;22.50;16.50
50866;PMS7003;36839;51.946;21.002;2023-03-01T09:51:56;28.00;19.50;14.00
50866;PMS7003;36839;51.946;21.002;2023-03-01T09:54:36;27.00;19.00;13.00
50866;PMS7003;36839;51.946;21.002;2023-03-01T10:00:07;24.00;20.00;14.00
50866;PMS7003;36839;51.946;21.002;2023-03-01T10:10:49;14.00;14.00;10.00
50866;PMS7003;36839;51.946;21.002;2023-03-01T10:15:50;14.00;11.00;9.00
50866;PMS7003;36839;51.946;21.002;2023-03-01T10:18:33;12.00;11.00;9.00
50866;PMS7003;36839;51.946;21.002;2023-03-01T10:21:09;22.00;16.00;12.00
50866;PMS7003;36839;51.946;21.002;2023-03-01T10:23:42;21.00;13.00;10.00
50866;PMS7003;36839;51.946;21.002;2023-03-01T10:31:35;20.00;18.00;12.00
50866;PMS7003;36839;51.946;21.002;2023-03-01T10:34:14;24.00;17.00;13.00
50866;PMS7003;36839;51.946;21.002;2023-03-01T10:36:45;14.00;14.00;10.00
50866;PMS7003;36839;51.946;21.002;2023-03-01T10:39:17;16.00;14.00;10.00
50866;PMS7003;36839;51.946;21.002;2023-03-01T10:44:40;14.00;14.00;10.00
50866;PMS7003;36839;51.946;21.002;2023-03-01T10:47:17;31.00;31.00;23.00
50866;PMS7003;36839;51.946;21.002;2023-03-01T10:50:00;27.00;16.00;11.00
50866;PMS7003;36839;51.946;21.002;2023-03-01T10:52:36;16.00;15.00;10.00
50866;PMS7003;36839;51.946;21.002;2023-03-01T10:57:39;15.00;11.00;9.00
50866;PMS7003;36839;51.946;21.002;2023-03-01T11:02:49;15.67;10.00;7.67
50866;PMS7003;36839;51.946;21.002;2023-03-01T11:05:37;10.00;10.00;9.00
50866;PMS7003;36839;51.946;21.002;2023-03-01T11:08:29;11.00;9.00;8.00
50866;PMS7003;36839;51.946;21.002;2023-03-01T11:11:13;11.50;11.00;8.00
50866;PMS7003;36839;51.946;21.002;2023-03-01T11:13:52;22.00;12.00;10.00
50866;PMS7003;36839;51.946;21.002;2023-03-01T11:16:22;16.00;14.00;9.00
50866;PMS7003;36839;51.946;21.002;2023-03-01T11:24:10;12.00;12.00;9.00
50866;PMS7003;36839;51.946;21.002;2023-03-01T11:26:42;15.50;15.50;11.00
50866;PMS7003;36839;51.946;21.002;2023-03-01T11:32:08;12.00;10.50;9.00
50866;PMS7003;36839;51.946;21.002;2023-03-01T11:34:42;16.00;14.00;10.00
50866;PMS7003;36839;51.946;21.002;2023-03-01T11:37:29;18.33;12.00;8.67
50866;PMS7003;36839;51.946;21.002;2023-03-01T11:40:05;16.00;12.00;8.00
50866;PMS7003;36839;51.946;21.002;2023-03-01T11:42:46;17.00;13.50;10.00
50866;PMS7003;36839;51.946;21.002;2023-03-01T11:45:20;16.50;13.50;10.00
50866;PMS7003;36839;51.946;21.002;2023-03-01T11:50:47;16.00;13.00;10.00
50866;PMS7003;36839;51.946;21.002;2023-03-01T12:01:35;15.50;12.50;9.50
50866;PMS7003;36839;51.946;21.002;2023-03-01T12:04:57;17.00;13.00;10.00
50866;PMS7003;36839;51.946;21.002;2023-03-01T12:07:49;16.00;14.00;10.00
50866;PMS7003;36839;51.946;21.002;2023-03-01T12:10:50;16.00;14.00;9.50
50866;PMS7003;36839;51.946;21.002;2023-03-01T12:13:38;22.00;14.00;9.00
50866;PMS7003;36839;51.946;21.002;2023-03-01T12:16:13;22.00;14.00;11.00
50866;PMS7003;36839;51.946;21.002;2023-03-01T12:33:29;19.00;17.00;11.00
50866;PMS7003;36839;51.946;21.002;2023-03-01T12:42:01;14.00;12.50;9.00
50866;PMS7003;36839;51.946;21.002;2023-03-01T12:50:25;13.00;13.00;9.00
50866;PMS7003;36839;51.946;21.002;2023-03-01T12:55:49;15.00;12.00;10.00
50866;PMS7003;36839;51.946;21.002;2023-03-01T13:01:03;18.00;17.00;11.00
50866;PMS7003;36839;51.946;21.002;2023-03-01T13:11:30;18.00;15.00;12.00
50866;PMS7003;36839;51.946;21.002;2023-03-01T13:16:53;28.00;18.00;13.00
50866;PMS7003;36839;51.946;21.002;2023-03-01T13:19:21;22.50;18.00;13.00
50866;PMS7003;36839;51.946;21.002;2023-03-01T13:21:53;16.00;13.00;10.00
50866;PMS7003;36839;51.946;21.002;2023-03-01T13:29:56;20.00;17.00;11.00
50866;PMS7003;36839;51.946;21.002;2023-03-01T13:32:30;27.00;18.50;11.00
50866;PMS7003;36839;51.946;21.002;2023-03-01T13:35:02;21.00;19.00;12.50
50866;PMS7003;36839;51.946;21.002;2023-03-01T13:42:45;23.00;18.00;12.00
50866;PMS7003;36839;51.946;21.002;2023-03-01T13:45:31;21.00;19.50;11.50
50866;PMS7003;36839;51.946;21.002;2023-03-01T13:48:04;26.50;23.00;15.00
50866;PMS7003;36839;51.946;21.002;2023-03-01T13:50:38;30.00;26.00;18.00
50866;PMS7003;36839;51.946;21.002;2023-03-01T13:55:55;31.00;26.00;19.00
50866;PMS7003;36839;51.946;21.002;2023-03-01T13:58:28;28.50;23.00;15.00
50866;PMS7003;36839;51.946;21.002;2023-03-01T14:01:01;29.00;22.50;15.00
50866;PMS7003;36839;51.946;21.002;2023-03-01T14:03:32;27.50;24.50;19.00
50866;PMS7003;36839;51.946;21.002;2023-03-01T14:06:22;24.00;24.00;18.00
50866;PMS7003;36839;51.946;21.002;2023-03-01T14:09:00;34.00;30.00;20.50
50866;PMS7003;36839;51.946;21.002;2023-03-01T14:12:06;44.50;30.50;21.00
50866;PMS7003;36839;51.946;21.002;2023-03-01T14:22:40;36.00;27.00;18.00
50866;PMS7003;36839;51.946;21.002;2023-03-01T14:25:22;25.50;22.50;16.50
50866;PMS7003;36839;51.946;21.002;2023-03-01T14:30:32;33.50;30.50;20.00
50866;PMS7003;36839;51.946;21.002;2023-03-01T14:33:15;40.00;34.00;22.00
50866;PMS7003;36839;51.946;21.002;2023-03-01T14:36:06;34.00;30.00;21.00
50866;PMS7003;36839;51.946;21.002;2023-03-01T14:41:09;37.00;29.00;20.00
50866;PMS7003;36839;51.946;21.002;2023-03-01T14:43:46;40.00;32.50;21.50
50866;PMS7003;36839;51.946;21.002;2023-03-01T14:46:45;25.00;24.00;20.00
50866;PMS7003;36839;51.946;21.002;2023-03-01T14:49:17;47.00;34.00;22.00
50866;PMS7003;36839;51.946;21.002;2023-03-01T14:54:25;49.00;32.50;21.50
50866;PMS7003;36839;51.946;21.002;2023-03-01T14:57:12;36.00;31.00;21.00
50866;PMS7003;36839;51.946;21.002;2023-03-01T15:02:12;36.00;28.00;21.00
50866;PMS7003;36839;51.946;21.002;2023-03-01T15:04:52;43.00;33.50;22.00
50866;PMS7003;36839;51.946;21.002;2023-03-01T15:07:26;36.50;30.50;21.50
50866;PMS7003;36839;51.946;21.002;2023-03-01T15:09:57;36.50;28.00;22.00
50866;PMS7003;36839;51.946;21.002;2023-03-01T15:17:34;30.00;29.00;20.50
50866;PMS7003;36839;51.946;21.002;2023-03-01T15:20:06;35.00;28.00;19.00
50866;PMS7003;36839;51.946;21.002;2023-03-01T15:22:43;27.50;25.50;17.00
50866;PMS7003;36839;51.946;21.002;2023-03-01T15:25:24;48.50;37.50;24.50
50866;PMS7003;36839;51.946;21.002;2023-03-01T15:27:54;55.00;45.00;30.00
50866;PMS7003;36839;51.946;21.002;2023-03-01T15:30:24;60.00;46.50;31.50
50866;PMS7003;36839;51.946;21.002;2023-03-01T15:33:20;63.00;50.00;35.00
50866;PMS7003;36839;51.946;21.002;2023-03-01T15:35:57;50.00;40.00;28.00
50866;PMS7003;36839;51.946;21.002;2023-03-01T15:41:29;48.00;36.00;25.00
50866;PMS7003;36839;51.946;21.002;2023-03-01T15:46:29;28.00;24.00;16.00
50866;PMS7003;36839;51.946;21.002;2023-03-01T15:49:43;32.00;25.00;18.00
50866;PMS7003;36839;51.946;21.002;2023-03-01T15:54:28;36.50;29.00;19.50
50866;PMS7003;36839;51.946;21.002;2023-03-01T15:56:55;42.00;36.50;25.00
50866;PMS7003;36839;51.946;21.002;2023-03-01T15:59:26;54.00;44.00;29.00
50866;PMS7003;36839;51.946;21.002;2023-03-01T16:04:21;75.00;58.00;38.50
50866;PMS7003;36839;51.946;21.002;2023-03-01T16:06:50;66.00;54.00;37.00
50866;PMS7003;36839;51.946;21.002;2023-03-01T16:09:21;76.50;56.50;37.50
50866;PMS7003;36839;51.946;21.002;2023-03-01T16:11:50;65.00;50.00;36.00
50866;PMS7003;36839;51.946;21.002;2023-03-01T16:14:18;58.00;46.50;31.00
50866;PMS7003;36839;51.946;21.002;2023-03-01T16:19:15;53.00;39.00;26.00
50866;PMS7003;36839;51.946;21.002;2023-03-01T16:21:43;37.00;32.00;22.00
50866;PMS7003;36839;51.946;21.002;2023-03-01T16:24:15;48.00;37.50;26.00
50866;PMS7003;36839;51.946;21.002;2023-03-01T16:26:45;40.00;37.67;25.00
50866;PMS7003;36839;51.946;21.002;2023-03-01T16:29:14;38.00;35.00;25.00
50866;PMS7003;36839;51.946;21.002;2023-03-01T16:31:43;32.50;30.00;19.00
50866;PMS7003;36839;51.946;21.002;2023-03-01T16:34:11;39.00;28.50;22.00
50866;PMS7003;36839;51.946;21.002;2023-03-01T16:36:39;63.00;50.00;33.00
50866;PMS7003;36839;51.946;21.002;2023-03-01T16:39:10;47.00;37.00;25.00
50866;PMS7003;36839;51.946;21.002;2023-03-01T16:41:37;36.00;31.00;21.50
50866;PMS7003;36839;51.946;21.002;2023-03-01T16:44:04;62.00;45.00;28.00
50866;PMS7003;36839;51.946;21.002;2023-03-01T16:46:32;79.00;57.50;38.00
50866;PMS7003;36839;51.946;21.002;2023-03-01T16:48:59;74.00;55.00;37.00
50866;PMS7003;36839;51.946;21.002;2023-03-01T16:51:29;67.00;51.00;33.00
50866;PMS7003;36839;51.946;21.002;2023-03-01T16:53:59;62.00;47.00;31.00
50866;PMS7003;36839;51.946;21.002;2023-03-01T16:56:27;59.50;47.50;32.00
50866;PMS7003;36839;51.946;21.002;2023-03-01T16:58:57;59.50;47.00;29.50
50866;PMS7003;36839;51.946;21.002;2023-03-01T17:01:27;59.00;43.00;27.00
50866;PMS7003;36839;51.946;21.002;2023-03-01T17:04:03;56.00;43.00;27.00
50866;PMS7003;36839;51.946;21.002;2023-03-01T17:09:00;72.00;52.00;33.00
50866;PMS7003;36839;51.946;21.002;2023-03-01T17:11:29;74.00;54.00;32.00
50866;PMS7003;36839;51.946;21.002;2023-03-01T17:13:57;60.00;48.00;31.00